createdAt,value
2018-04-18T00:01:15.041Z,7.37
2018-04-18T00:03:42.926Z,10.60
2018-04-18T00:06:12.405Z,9.10
2018-04-18T00:08:40.814Z,7.67
2018-04-18T00:11:11.755Z,8.40
2018-04-18T00:13:40.060Z,6.50
2018-04-18T00:16:08.849Z,8.03
2018-04-18T00:18:36.766Z,6.70
2018-04-18T00:21:06.482Z,8.17
2018-04-18T00:23:35.791Z,6.33
2018-04-18T00:26:05.676Z,9.70
2018-04-18T00:28:42.934Z,9.27
2018-04-18T00:31:13.110Z,5.13
2018-04-18T00:33:42.351Z,6.33
2018-04-18T00:36:10.757Z,6.90
2018-04-18T00:38:39.599Z,9.00
2018-04-18T00:41:08.345Z,7.00
2018-04-18T00:43:36.240Z,7.47
2018-04-18T00:49:30.067Z,6.63
2018-04-18T00:51:58.750Z,6.20
2018-04-18T00:54:28.848Z,7.27
2018-04-18T00:56:57.239Z,8.57
2018-04-18T00:59:26.714Z,10.57
2018-04-18T01:01:56.291Z,6.60
2018-04-18T01:04:26.252Z,9.20
2018-04-18T01:06:56.442Z,7.37
2018-04-18T01:09:30.913Z,6.27
2018-04-18T01:12:01.476Z,5.77
2018-04-18T01:15:05.731Z,7.17
2018-04-18T01:17:33.328Z,7.70
2018-04-18T01:20:01.187Z,8.73
2018-04-18T01:22:29.999Z,7.93
2018-04-18T01:24:57.976Z,6.27
2018-04-18T01:27:27.695Z,8.40
2018-04-18T01:30:04.933Z,7.13
2018-04-18T01:32:32.610Z,8.50
2018-04-18T01:35:02.627Z,7.23
2018-04-18T01:37:32.527Z,6.13
2018-04-18T01:40:01.796Z,8.20
2018-04-18T01:42:33.508Z,7.37
2018-04-18T01:45:15.230Z,8.37
2018-04-18T01:47:42.831Z,8.17
2018-04-18T01:50:15.807Z,9.37
2018-04-18T01:52:44.687Z,7.00
2018-04-18T01:55:13.414Z,6.23
2018-04-18T01:57:42.357Z,6.50
2018-04-18T02:00:10.257Z,7.23
2018-04-18T02:18:55.020Z,9.50
2018-04-18T02:21:23.735Z,6.63
2018-04-18T02:23:51.502Z,6.20
2018-04-18T02:26:21.519Z,6.17
2018-04-18T02:28:50.692Z,6.13
2018-04-18T02:31:56.124Z,7.53
2018-04-18T02:34:26.152Z,7.80
2018-04-18T02:36:54.485Z,9.67
2018-04-18T02:39:24.797Z,5.97
2018-04-18T02:41:53.762Z,9.90
2018-04-18T02:44:21.788Z,8.40
2018-04-18T02:46:51.303Z,6.47
2018-04-18T02:49:19.566Z,7.63
2018-04-18T02:51:48.749Z,10.57
2018-04-18T02:54:16.337Z,8.40
2018-04-18T02:56:45.512Z,6.23
2018-04-18T02:59:14.484Z,7.73
2018-04-18T03:02:22.227Z,9.67
2018-04-18T03:04:51.979Z,9.57
2018-04-18T03:07:22.936Z,9.40
2018-04-18T03:09:50.932Z,8.87
2018-04-18T03:12:20.501Z,8.40
2018-04-18T03:14:50.597Z,7.90
2018-04-18T03:17:18.435Z,9.00
2018-04-18T03:19:47.473Z,7.53
2018-04-18T03:22:16.561Z,7.47
2018-04-18T03:24:45.768Z,8.17
2018-04-18T03:27:15.585Z,7.93
2018-04-18T03:29:46.884Z,8.20
2018-04-18T03:32:16.783Z,10.20
2018-04-18T03:34:46.777Z,10.90
2018-04-18T03:37:15.884Z,7.70
2018-04-18T03:39:45.823Z,7.57
2018-04-18T03:42:16.255Z,10.20
2018-04-18T03:44:45.880Z,10.17
2018-04-18T03:47:14.744Z,9.20
2018-04-18T03:49:42.315Z,11.17
2018-04-18T03:52:10.559Z,7.63
2018-04-18T03:54:38.178Z,8.63
2018-04-18T03:57:06.116Z,12.47
2018-04-18T03:59:36.077Z,9.03
2018-04-18T04:02:04.148Z,9.43
2018-04-18T04:04:32.345Z,10.90
2018-04-18T04:07:01.256Z,8.43
2018-04-18T04:09:31.810Z,7.33
2018-04-18T04:12:02.235Z,10.80
2018-04-18T04:14:30.331Z,8.27
2018-04-18T04:17:11.825Z,9.47
2018-04-18T04:20:03.128Z,9.37
2018-04-18T04:22:44.349Z,11.30
2018-04-18T04:25:14.738Z,9.23
2018-04-18T04:27:47.608Z,10.67
2018-04-18T04:30:17.870Z,11.43
2018-04-18T04:33:00.274Z,11.27
2018-04-18T04:35:29.512Z,10.23
2018-04-18T04:37:58.963Z,11.27
2018-04-18T04:40:28.607Z,10.27
2018-04-18T04:42:56.838Z,8.63
2018-04-18T04:45:24.409Z,10.40
2018-04-18T04:47:53.662Z,9.87
2018-04-18T04:50:21.869Z,9.57
2018-04-18T04:52:49.407Z,8.63
2018-04-18T04:55:18.621Z,8.87
2018-04-18T04:57:49.356Z,12.43
2018-04-18T05:00:18.214Z,8.33
2018-04-18T05:02:46.426Z,7.53
2018-04-18T05:05:15.244Z,8.47
2018-04-18T05:07:42.846Z,12.00
2018-04-18T05:10:10.396Z,8.43
2018-04-18T05:12:38.521Z,8.37
2018-04-18T05:15:06.486Z,10.70
2018-04-18T05:17:34.963Z,11.23
2018-04-18T05:20:02.825Z,11.73
2018-04-18T05:22:30.422Z,7.27
2018-04-18T05:25:02.339Z,9.33
2018-04-18T05:27:33.501Z,8.23
2018-04-18T05:30:05.652Z,8.60
2018-04-18T05:32:38.192Z,9.50
2018-04-18T05:35:05.897Z,8.73
2018-04-18T05:37:33.729Z,10.67
2018-04-18T05:40:01.458Z,10.47
2018-04-18T05:42:30.358Z,8.00
2018-04-18T05:45:01.543Z,7.13
2018-04-18T05:47:35.405Z,10.57
2018-04-18T05:50:04.884Z,8.43
2018-04-18T05:52:32.685Z,7.90
2018-04-18T05:55:00.244Z,9.90
2018-04-18T05:57:28.156Z,9.27
2018-04-18T05:59:58.666Z,9.30
2018-04-18T06:02:31.355Z,7.10
2018-04-18T06:05:03.065Z,8.43
2018-04-18T06:07:30.622Z,6.10
2018-04-18T06:09:59.221Z,8.67
2018-04-18T06:12:29.806Z,10.47
2018-04-18T06:14:57.383Z,7.50
2018-04-18T06:17:29.856Z,10.03
2018-04-18T06:19:59.642Z,9.20
2018-04-18T06:22:35.137Z,9.73
2018-04-18T06:25:08.219Z,7.33
2018-04-18T06:27:47.146Z,9.40
2018-04-18T06:30:18.423Z,8.13
2018-04-18T06:32:52.996Z,8.80
2018-04-18T06:35:20.849Z,9.30
2018-04-18T06:37:48.391Z,10.40
2018-04-18T06:40:17.482Z,12.10
2018-04-18T06:42:45.053Z,10.63
2018-04-18T06:45:12.604Z,7.30
2018-04-18T06:47:40.864Z,9.63
2018-04-18T06:50:16.557Z,10.90
2018-04-18T06:52:44.317Z,9.17
2018-04-18T06:55:12.157Z,9.03
2018-04-18T06:57:39.711Z,6.93
2018-04-18T07:00:07.969Z,8.33
2018-04-18T07:02:44.066Z,8.90
2018-04-18T07:05:21.035Z,7.50
2018-04-18T07:07:53.105Z,13.80
2018-04-18T07:10:28.767Z,6.80
2018-04-18T07:13:00.443Z,6.83
2018-04-18T07:15:29.627Z,7.70
2018-04-18T07:17:58.851Z,10.83
2018-04-18T07:20:55.576Z,7.17
2018-04-18T07:23:25.035Z,9.23
2018-04-18T07:25:58.731Z,6.37
2018-04-18T07:28:31.246Z,8.60
2018-04-18T07:31:02.726Z,8.07
2018-04-18T07:33:31.637Z,7.80
2018-04-18T07:36:08.860Z,7.47
2018-04-18T07:38:37.752Z,7.73
2018-04-18T07:41:06.680Z,7.93
2018-04-18T07:43:40.325Z,7.00
2018-04-18T07:46:12.526Z,7.25
2018-04-18T07:48:42.504Z,8.07
2018-04-18T07:51:16.166Z,5.55
2018-04-18T07:53:50.453Z,6.90
2018-04-18T07:56:22.560Z,4.65
2018-04-18T07:58:52.534Z,6.85
2018-04-18T08:01:24.425Z,7.37
2018-04-18T08:03:53.318Z,8.02
2018-04-18T08:06:23.721Z,5.95
2018-04-18T08:08:52.805Z,5.28
2018-04-18T08:11:24.661Z,5.72
2018-04-18T08:14:00.735Z,3.75
2018-04-18T08:16:34.979Z,7.30
2018-04-18T08:22:00.656Z,6.65
2018-04-18T08:24:30.476Z,5.32
2018-04-18T08:26:59.376Z,7.07
2018-04-18T08:29:30.099Z,6.28
2018-04-18T08:32:02.370Z,5.18
2018-04-18T08:34:35.029Z,7.22
2018-04-18T08:37:04.764Z,5.90
2018-04-18T08:39:33.664Z,6.25
2018-04-18T08:42:02.553Z,5.47
2018-04-18T08:44:31.514Z,6.37
2018-04-18T08:47:02.242Z,4.53
2018-04-18T08:49:37.553Z,5.28
2018-04-18T08:55:18.202Z,6.45
2018-04-18T08:57:52.793Z,8.52
2018-04-18T09:00:29.375Z,4.32
2018-04-18T09:03:04.712Z,7.25
2018-04-18T09:05:37.819Z,5.00
2018-04-18T09:11:17.606Z,5.18
2018-04-18T09:13:53.400Z,4.68
2018-04-18T09:16:25.794Z,5.97
2018-04-18T09:18:54.824Z,7.53
2018-04-18T09:21:23.761Z,7.53
2018-04-18T09:23:53.438Z,4.70
2018-04-18T09:26:24.782Z,4.82
2018-04-18T09:28:54.842Z,6.00
2018-04-18T09:31:28.404Z,7.43
2018-04-18T09:34:01.252Z,7.47
2018-04-18T09:36:41.452Z,6.05
2018-04-18T09:39:12.510Z,7.43
2018-04-18T09:41:45.822Z,6.37
2018-04-18T09:44:20.695Z,5.90
2018-04-18T09:46:50.142Z,5.70
2018-04-18T09:49:19.351Z,6.03
2018-04-18T09:51:48.819Z,6.43
2018-04-18T09:54:17.726Z,5.68
2018-04-18T09:56:47.264Z,5.62
2018-04-18T09:59:20.024Z,4.90
2018-04-18T10:01:55.948Z,6.57
2018-04-18T10:04:33.804Z,6.75
2018-04-18T10:07:04.114Z,6.00
2018-04-18T10:09:35.359Z,4.87
2018-04-18T10:12:04.905Z,5.07
2018-04-18T10:14:34.018Z,6.43
2018-04-18T10:17:02.917Z,4.53
2018-04-18T10:19:32.380Z,5.95
2018-04-18T10:22:05.247Z,3.00
2018-04-18T10:28:05.005Z,3.53
2018-04-18T10:30:33.918Z,4.43
2018-04-18T10:33:02.843Z,3.53
2018-04-18T10:35:33.167Z,6.18
2018-04-18T10:38:05.151Z,4.30
2018-04-18T10:40:38.397Z,3.28
2018-04-18T10:43:09.381Z,6.55
2018-04-18T10:45:38.552Z,3.80
2018-04-18T10:48:07.464Z,3.25
2018-04-18T10:50:36.774Z,6.03
2018-04-18T10:53:05.672Z,4.80
2018-04-18T10:55:36.226Z,5.60
2018-04-18T10:58:11.609Z,3.83
2018-04-18T11:00:46.850Z,5.32
2018-04-18T11:03:21.740Z,3.33
2018-04-18T11:05:58.554Z,6.57
2018-04-18T11:08:36.659Z,4.00
2018-04-18T11:11:08.117Z,3.45
2018-04-18T11:13:42.988Z,3.90
2018-04-18T11:16:21.177Z,2.85
2018-04-18T11:18:53.628Z,6.10
2018-04-18T11:21:27.778Z,4.72
2018-04-18T11:24:10.025Z,2.67
2018-04-18T11:26:39.445Z,3.30
2018-04-18T11:29:08.328Z,2.58
2018-04-18T11:31:37.708Z,4.20
2018-04-18T11:34:07.684Z,3.45
2018-04-18T11:36:36.960Z,3.90
2018-04-18T11:39:15.476Z,2.45
2018-04-18T11:41:44.358Z,2.25
2018-04-18T11:44:13.290Z,3.67
2018-04-18T11:46:48.591Z,2.83
2018-04-18T11:49:22.957Z,3.78
2018-04-18T11:51:56.324Z,3.37
2018-04-18T11:54:31.316Z,4.30
2018-04-18T11:57:08.599Z,2.83
2018-04-18T11:59:38.705Z,5.18
2018-04-18T12:02:08.944Z,4.65
2018-04-18T12:04:37.634Z,4.87
2018-04-18T12:07:05.181Z,3.12
2018-04-18T12:10:04.501Z,3.03
2018-04-18T12:12:37.992Z,3.33
2018-04-18T12:15:05.692Z,3.25
2018-04-18T12:17:34.183Z,2.42
2018-04-18T12:20:01.981Z,2.78
2018-04-18T12:22:31.012Z,3.30
2018-04-18T12:25:01.599Z,3.17
2018-04-18T12:27:36.329Z,2.47
2018-04-18T12:30:09.693Z,2.50
2018-04-18T12:35:22.400Z,3.28
2018-04-18T12:37:55.297Z,2.97
2018-04-18T12:41:04.122Z,4.32
2018-04-18T12:43:38.087Z,2.92
2018-04-18T12:46:12.126Z,2.05
2018-04-18T12:48:39.686Z,3.12
2018-04-18T12:51:09.030Z,3.75
2018-04-18T12:53:36.911Z,2.45
2018-04-18T12:56:05.696Z,2.28
2018-04-18T12:58:35.945Z,3.35
2018-04-18T13:01:10.482Z,5.03
2018-04-18T13:03:44.328Z,3.42
2018-04-18T13:06:15.262Z,2.50
2018-04-18T13:08:46.811Z,4.12
2018-04-18T13:11:36.543Z,2.70
2018-04-18T13:14:04.173Z,3.67
2018-04-18T13:16:33.157Z,5.53
2018-04-18T13:19:01.052Z,4.40
2018-04-18T13:21:28.843Z,3.22
2018-04-18T13:23:57.166Z,5.35
2018-04-18T13:26:26.314Z,3.62
2018-04-18T13:28:57.506Z,3.25
2018-04-18T13:31:25.919Z,3.03
2018-04-18T13:33:53.481Z,5.78
2018-04-18T13:36:25.884Z,3.72
2018-04-18T13:38:53.445Z,3.67
2018-04-18T13:41:26.839Z,3.35
2018-04-18T13:44:01.184Z,4.15
2018-04-18T13:46:32.998Z,3.40
2018-04-18T13:49:01.113Z,2.85
2018-04-18T13:51:29.438Z,3.50
2018-04-18T13:53:56.992Z,2.92
2018-04-18T13:56:30.163Z,3.78
2018-04-18T13:59:02.583Z,4.05
2018-04-18T14:01:37.703Z,3.45
2018-04-18T14:04:11.242Z,2.70
2018-04-18T14:06:43.448Z,3.40
2018-04-18T14:09:12.230Z,4.80
2018-04-18T14:12:01.529Z,4.62
2018-04-18T14:14:31.596Z,3.53
2018-04-18T14:16:59.871Z,3.85
2018-04-18T14:19:27.839Z,4.93
2018-04-18T14:21:57.610Z,4.82
2018-04-18T14:24:33.229Z,3.33
2018-04-18T14:27:02.233Z,4.32
2018-04-18T14:29:31.664Z,2.87
2018-04-18T14:32:06.123Z,6.10
2018-04-18T14:34:37.872Z,3.58
2018-04-18T14:37:12.212Z,4.78
2018-04-18T14:39:42.791Z,4.78
2018-04-18T14:42:10.388Z,4.93
2018-04-18T14:44:38.509Z,3.55
2018-04-18T14:47:06.070Z,4.30
2018-04-18T14:49:37.275Z,2.92
2018-04-18T14:52:08.704Z,2.90
2018-04-18T14:54:45.508Z,3.85
2018-04-18T14:57:57.585Z,3.47
2018-04-18T15:00:25.308Z,6.72
2018-04-18T15:02:58.903Z,4.65
2018-04-18T15:05:29.654Z,5.55
2018-04-18T15:07:58.563Z,5.25
2018-04-18T15:10:26.754Z,3.33
2018-04-18T15:12:57.849Z,4.22
2018-04-18T15:15:25.402Z,4.87
2018-04-18T15:18:00.043Z,5.00
2018-04-18T15:20:33.425Z,4.12
2018-04-18T15:23:08.589Z,4.43
2018-04-18T15:25:45.708Z,3.78
2018-04-18T15:37:54.123Z,4.87
2018-04-18T15:40:22.308Z,4.05
2018-04-18T15:42:51.182Z,5.03
2018-04-18T15:45:20.741Z,4.25
2018-04-18T15:47:49.071Z,7.10
2018-04-18T15:50:16.626Z,3.15
2018-04-18T15:52:45.519Z,4.82
2018-04-18T15:55:13.551Z,3.28
2018-04-18T15:57:43.712Z,3.33
2018-04-18T16:00:19.401Z,3.45
2018-04-18T16:02:51.999Z,3.45
2018-04-18T16:05:22.114Z,3.97
2018-04-18T16:07:50.536Z,4.53
2018-04-18T16:10:19.398Z,4.62
2018-04-18T16:13:00.668Z,4.18
2018-04-18T16:15:29.906Z,6.18
2018-04-18T16:18:00.918Z,5.53
2018-04-18T16:20:31.676Z,5.57
2018-04-18T16:23:02.050Z,3.62
2018-04-18T16:25:32.429Z,5.93
2018-04-18T16:28:00.729Z,3.97
2018-04-18T16:30:40.152Z,3.83
2018-04-18T16:33:07.905Z,4.35
2018-04-18T16:35:36.066Z,4.35
2018-04-18T16:38:05.112Z,4.62
2018-04-18T16:40:34.086Z,5.25
2018-04-18T16:43:06.895Z,4.40
2018-04-18T16:45:35.048Z,5.75
2018-04-18T16:48:09.916Z,3.20
2018-04-18T16:50:43.520Z,5.57
2018-04-18T16:53:13.796Z,5.43
2018-04-18T16:55:44.169Z,5.43
2018-04-18T16:58:13.696Z,4.70
2018-04-18T17:04:04.451Z,3.40
2018-04-18T17:06:32.033Z,5.22
2018-04-18T17:09:01.622Z,4.97
2018-04-18T17:11:33.463Z,4.65
2018-04-18T17:14:05.689Z,3.70
2018-04-18T17:16:42.151Z,4.60
2018-04-18T17:19:17.537Z,5.35
2018-04-18T17:21:45.884Z,5.28
2018-04-18T17:24:16.196Z,5.70
2018-04-18T17:26:45.411Z,4.35
2018-04-18T17:29:14.876Z,6.62
2018-04-18T17:31:43.065Z,6.30
2018-04-18T17:34:10.643Z,4.05
2018-04-18T17:36:40.541Z,5.50
2018-04-18T17:39:10.973Z,4.47
2018-04-18T17:41:43.668Z,5.50
2018-04-18T17:44:42.509Z,4.12
2018-04-18T17:47:15.679Z,4.37
2018-04-18T17:49:47.500Z,4.80
2018-04-18T17:52:17.245Z,4.62
2018-04-18T17:54:48.426Z,4.95
2018-04-18T17:57:16.158Z,6.72
2018-04-18T18:00:06.157Z,6.50
2018-04-18T18:02:34.446Z,6.18
2018-04-18T18:05:03.190Z,6.28
2018-04-18T18:07:34.188Z,8.73
2018-04-18T18:10:03.849Z,7.07
2018-04-18T18:12:39.842Z,7.50
2018-04-18T18:19:07.222Z,7.97
2018-04-18T18:21:37.518Z,8.50
2018-04-18T18:24:06.745Z,5.97
2018-04-18T18:26:38.552Z,6.97
2018-04-18T18:29:16.754Z,4.80
2018-04-18T18:31:50.741Z,5.07
2018-04-18T18:34:18.303Z,3.97
2018-04-18T18:36:45.890Z,4.10
2018-04-18T18:39:13.919Z,5.20
2018-04-18T18:41:41.801Z,5.90
2018-04-18T18:44:12.912Z,6.47
2018-04-18T18:46:42.749Z,5.33
2018-04-18T18:49:10.321Z,6.83
2018-04-18T18:51:38.649Z,6.63
2018-04-18T18:54:06.465Z,5.07
2018-04-18T18:56:36.403Z,4.73
2018-04-18T18:59:03.973Z,6.50
2018-04-18T19:01:33.165Z,4.93
2018-04-18T19:04:01.719Z,6.70
2018-04-18T19:06:29.671Z,5.80
2018-04-18T19:08:58.745Z,6.10
2018-04-18T19:11:29.703Z,6.57
2018-04-18T19:13:57.521Z,4.47
2018-04-18T19:16:26.727Z,7.13
2018-04-18T19:18:55.296Z,9.67
2018-04-18T19:21:26.228Z,7.60
2018-04-18T19:23:57.152Z,5.67
2018-04-18T19:26:26.059Z,9.40
2018-04-18T19:28:53.892Z,14.53
2018-04-18T19:31:24.269Z,13.13
2018-04-18T19:33:52.586Z,10.53
2018-04-18T19:36:21.334Z,9.23
2018-04-18T19:38:51.303Z,7.13
2018-04-18T19:41:21.210Z,7.43
2018-04-18T19:43:49.195Z,6.50
2018-04-18T19:46:17.508Z,9.17
2018-04-18T19:48:45.108Z,6.93
2018-04-18T19:51:13.522Z,6.13
2018-04-18T19:53:41.062Z,7.20
2018-04-18T19:56:09.732Z,6.37
2018-04-18T19:58:46.800Z,7.00
2018-04-18T20:01:20.190Z,8.10
2018-04-18T20:03:54.051Z,7.30
2018-04-18T20:06:24.974Z,8.93
2018-04-18T20:08:55.659Z,7.37
2018-04-18T20:11:28.168Z,6.90
2018-04-18T20:13:58.879Z,7.10
2018-04-18T20:16:29.879Z,9.13
2018-04-18T20:19:02.597Z,5.47
2018-04-18T20:21:35.502Z,6.37
2018-04-18T20:24:06.049Z,8.70
2018-04-18T20:26:38.401Z,6.27
2018-04-18T20:29:08.894Z,8.37
2018-04-18T20:31:39.395Z,7.37
2018-04-18T20:34:09.350Z,7.47
2018-04-18T20:36:47.512Z,4.83
2018-04-18T20:39:20.072Z,5.37
2018-04-18T20:41:56.167Z,7.00
2018-04-18T20:44:32.683Z,6.23
2018-04-18T20:47:04.533Z,6.70
2018-04-18T20:49:35.101Z,4.97
2018-04-18T20:52:05.169Z,6.80
2018-04-18T20:54:35.422Z,7.13
2018-04-18T20:57:05.921Z,8.13
2018-04-18T20:59:41.375Z,7.20
2018-04-18T21:02:13.453Z,6.17
2018-04-18T21:05:02.948Z,6.50
2018-04-18T21:07:32.715Z,9.70
2018-04-18T21:10:01.249Z,5.93
2018-04-18T21:12:29.064Z,6.10
2018-04-18T21:14:58.987Z,7.40
2018-04-18T21:17:29.113Z,7.83
2018-04-18T21:20:02.839Z,8.23
2018-04-18T21:22:32.920Z,7.27
2018-04-18T21:25:04.466Z,10.37
2018-04-18T21:27:34.927Z,6.67
2018-04-18T21:30:05.967Z,7.83
2018-04-18T21:32:36.785Z,8.97
2018-04-18T21:35:35.078Z,6.23
2018-04-18T21:38:05.979Z,6.53
2018-04-18T21:40:41.122Z,6.93
2018-04-18T21:43:13.663Z,7.57
2018-04-18T21:45:49.255Z,7.47
2018-04-18T21:48:20.162Z,6.43
2018-04-18T21:50:49.951Z,7.87
2018-04-18T21:53:20.125Z,8.77
2018-04-18T21:55:51.318Z,7.30
2018-04-18T21:58:26.214Z,6.40
2018-04-18T22:01:01.651Z,7.43
2018-04-18T22:03:36.870Z,7.73
2018-04-18T22:06:09.337Z,7.30
2018-04-18T22:08:43.464Z,7.93
2018-04-18T22:11:14.864Z,8.40
2018-04-18T22:13:44.229Z,9.83
2018-04-18T22:16:16.958Z,8.83
2018-04-18T22:18:48.130Z,7.97
2018-04-18T22:21:17.874Z,8.03
2018-04-18T22:23:54.501Z,8.20
2018-04-18T22:26:25.272Z,10.90
2018-04-18T22:28:58.236Z,8.40
2018-04-18T22:31:33.591Z,10.37
2018-04-18T22:34:03.006Z,10.10
2018-04-18T22:36:34.259Z,6.83
2018-04-18T22:39:04.458Z,8.73
2018-04-18T22:41:35.761Z,7.87
2018-04-18T22:44:12.157Z,9.27
2018-04-18T22:46:44.260Z,7.83
2018-04-18T22:49:16.846Z,8.47
2018-04-18T22:51:54.289Z,9.77
2018-04-18T22:54:24.334Z,7.60
2018-04-18T22:56:54.799Z,9.40
2018-04-18T22:59:29.830Z,8.97
2018-04-18T23:02:00.380Z,7.90
2018-04-18T23:04:30.636Z,7.73
2018-04-18T23:07:06.234Z,9.83
2018-04-18T23:09:42.466Z,9.60
2018-04-18T23:12:18.169Z,9.10
2018-04-18T23:14:52.421Z,8.27
2018-04-18T23:17:23.187Z,8.10
2018-04-18T23:20:23.353Z,8.83
2018-04-18T23:22:53.400Z,12.10
2018-04-18T23:25:24.143Z,9.43
2018-04-18T23:27:56.616Z,8.20
2018-04-18T23:30:32.344Z,8.23
2018-04-18T23:33:04.694Z,8.50
2018-04-18T23:36:13.051Z,11.00
2018-04-18T23:38:47.688Z,7.17
2018-04-18T23:41:18.357Z,12.10
2018-04-18T23:43:48.825Z,9.03
2018-04-18T23:46:19.253Z,9.60
2018-04-18T23:48:49.587Z,7.50
2018-04-18T23:51:21.221Z,10.20
2018-04-18T23:53:51.278Z,9.77
2018-04-18T23:56:23.924Z,10.77
2018-04-18T23:58:53.999Z,9.80
